sensor_id;sensor_type;location;lat;lon;timestamp;P1;durP1;ratioP1;P2;durP2;ratioP2
66169;SDS011;66757;44.024;20.456;2023-06-24T00:00:17;29.35;;;5.15;;
66169;SDS011;66757;44.024;20.456;2023-06-24T00:02:44;31.63;;;5.55;;
66169;SDS011;66757;44.024;20.456;2023-06-24T00:05:10;21.58;;;4.72;;
66169;SDS011;66757;44.024;20.456;2023-06-24T00:07:36;35.38;;;4.63;;
66169;SDS011;66757;44.024;20.456;2023-06-24T00:10:09;18.10;;;3.67;;
66169;SDS011;66757;44.024;20.456;2023-06-24T00:12:38;25.83;;;4.28;;
66169;SDS011;66757;44.024;20.456;2023-06-24T00:15:05;20.60;;;3.95;;
66169;SDS011;66757;44.024;20.456;2023-06-24T00:17:31;20.85;;;2.70;;
66169;SDS011;66757;44.024;20.456;2023-06-24T00:19:57;19.17;;;2.90;;
66169;SDS011;66757;44.024;20.456;2023-06-24T00:22:22;9.95;;;1.80;;
66169;SDS011;66757;44.024;20.456;2023-06-24T00:24:47;9.07;;;1.92;;
66169;SDS011;66757;44.024;20.456;2023-06-24T00:27:13;9.82;;;2.33;;
66169;SDS011;66757;44.024;20.456;2023-06-24T00:29:38;11.07;;;2.05;;
66169;SDS011;66757;44.024;20.456;2023-06-24T00:32:04;8.38;;;2.08;;
66169;SDS011;66757;44.024;20.456;2023-06-24T00:34:30;12.27;;;2.20;;
66169;SDS011;66757;44.024;20.456;2023-06-24T00:36:55;16.27;;;2.50;;
66169;SDS011;66757;44.024;20.456;2023-06-24T00:39:21;12.25;;;1.85;;
66169;SDS011;66757;44.024;20.456;2023-06-24T00:41:46;12.73;;;2.90;;
66169;SDS011;66757;44.024;20.456;2023-06-24T00:44:12;6.57;;;2.20;;
66169;SDS011;66757;44.024;20.456;2023-06-24T00:46:38;11.68;;;2.15;;
66169;SDS011;66757;44.024;20.456;2023-06-24T00:49:05;8.77;;;1.80;;
66169;SDS011;66757;44.024;20.456;2023-06-24T00:51:30;6.00;;;1.85;;
66169;SDS011;66757;44.024;20.456;2023-06-24T00:53:57;8.52;;;1.98;;
66169;SDS011;66757;44.024;20.456;2023-06-24T00:56:25;7.32;;;1.85;;
66169;SDS011;66757;44.024;20.456;2023-06-24T00:58:57;11.60;;;2.03;;
66169;SDS011;66757;44.024;20.456;2023-06-24T01:01:26;9.00;;;2.03;;
66169;SDS011;66757;44.024;20.456;2023-06-24T01:04:00;9.43;;;1.55;;
66169;SDS011;66757;44.024;20.456;2023-06-24T01:06:27;7.57;;;2.05;;
66169;SDS011;66757;44.024;20.456;2023-06-24T01:08:57;5.78;;;1.70;;
66169;SDS011;66757;44.024;20.456;2023-06-24T01:11:25;9.50;;;2.00;;
66169;SDS011;66757;44.024;20.456;2023-06-24T01:13:51;7.43;;;1.63;;
66169;SDS011;66757;44.024;20.456;2023-06-24T01:24:51;5.72;;;1.98;;
66169;SDS011;66757;44.024;20.456;2023-06-24T01:27:31;7.88;;;1.55;;
66169;SDS011;66757;44.024;20.456;2023-06-24T01:33:13;7.82;;;1.42;;
66169;SDS011;66757;44.024;20.456;2023-06-24T01:35:43;8.80;;;2.35;;
66169;SDS011;66757;44.024;20.456;2023-06-24T01:38:14;7.18;;;1.63;;
66169;SDS011;66757;44.024;20.456;2023-06-24T01:40:49;11.88;;;2.75;;
66169;SDS011;66757;44.024;20.456;2023-06-24T01:43:16;7.40;;;1.65;;
66169;SDS011;66757;44.024;20.456;2023-06-24T01:45:48;8.98;;;1.90;;
66169;SDS011;66757;44.024;20.456;2023-06-24T01:48:18;6.28;;;1.45;;
66169;SDS011;66757;44.024;20.456;2023-06-24T01:53:28;6.97;;;2.05;;
66169;SDS011;66757;44.024;20.456;2023-06-24T01:56:08;7.63;;;1.80;;
66169;SDS011;66757;44.024;20.456;2023-06-24T01:58:37;12.13;;;1.88;;
66169;SDS011;66757;44.024;20.456;2023-06-24T02:01:08;5.45;;;1.48;;
66169;SDS011;66757;44.024;20.456;2023-06-24T02:03:34;8.10;;;2.33;;
66169;SDS011;66757;44.024;20.456;2023-06-24T02:06:01;10.10;;;2.20;;
66169;SDS011;66757;44.024;20.456;2023-06-24T02:08:31;6.30;;;1.80;;
66169;SDS011;66757;44.024;20.456;2023-06-24T02:10:59;4.32;;;1.65;;
66169;SDS011;66757;44.024;20.456;2023-06-24T02:13:27;8.98;;;2.10;;
66169;SDS011;66757;44.024;20.456;2023-06-24T02:16:01;5.43;;;1.33;;
66169;SDS011;66757;44.024;20.456;2023-06-24T02:18:28;6.35;;;1.95;;
66169;SDS011;66757;44.024;20.456;2023-06-24T02:20:54;6.65;;;2.00;;
66169;SDS011;66757;44.024;20.456;2023-06-24T02:23:22;7.80;;;1.48;;
66169;SDS011;66757;44.024;20.456;2023-06-24T02:25:49;4.60;;;1.35;;
66169;SDS011;66757;44.024;20.456;2023-06-24T02:28:15;5.18;;;1.40;;
66169;SDS011;66757;44.024;20.456;2023-06-24T02:30:42;10.90;;;1.92;;
66169;SDS011;66757;44.024;20.456;2023-06-24T02:33:09;7.00;;;1.45;;
66169;SDS011;66757;44.024;20.456;2023-06-24T02:35:36;7.57;;;1.85;;
66169;SDS011;66757;44.024;20.456;2023-06-24T02:38:02;5.18;;;1.23;;
66169;SDS011;66757;44.024;20.456;2023-06-24T02:40:28;6.00;;;1.50;;
66169;SDS011;66757;44.024;20.456;2023-06-24T02:42:54;4.75;;;0.88;;
66169;SDS011;66757;44.024;20.456;2023-06-24T02:45:20;6.20;;;1.95;;
66169;SDS011;66757;44.024;20.456;2023-06-24T02:47:46;4.50;;;1.58;;
66169;SDS011;66757;44.024;20.456;2023-06-24T02:50:12;3.42;;;1.27;;
66169;SDS011;66757;44.024;20.456;2023-06-24T02:52:39;4.95;;;1.60;;
66169;SDS011;66757;44.024;20.456;2023-06-24T02:55:05;5.20;;;1.75;;
66169;SDS011;66757;44.024;20.456;2023-06-24T02:57:32;3.05;;;1.23;;
66169;SDS011;66757;44.024;20.456;2023-06-24T03:00:01;6.47;;;1.45;;
66169;SDS011;66757;44.024;20.456;2023-06-24T03:02:28;2.40;;;1.13;;
66169;SDS011;66757;44.024;20.456;2023-06-24T03:04:55;4.75;;;1.55;;
66169;SDS011;66757;44.024;20.456;2023-06-24T03:07:22;4.30;;;1.80;;
66169;SDS011;66757;44.024;20.456;2023-06-24T03:09:48;7.43;;;2.28;;
66169;SDS011;66757;44.024;20.456;2023-06-24T03:12:14;3.28;;;1.52;;
66169;SDS011;66757;44.024;20.456;2023-06-24T03:14:40;3.90;;;1.20;;
66169;SDS011;66757;44.024;20.456;2023-06-24T03:17:05;4.00;;;1.38;;
66169;SDS011;66757;44.024;20.456;2023-06-24T03:19:31;4.07;;;1.77;;
66169;SDS011;66757;44.024;20.456;2023-06-24T03:21:56;5.88;;;1.60;;
66169;SDS011;66757;44.024;20.456;2023-06-24T03:24:22;4.97;;;1.30;;
66169;SDS011;66757;44.024;20.456;2023-06-24T03:26:47;6.05;;;1.75;;
66169;SDS011;66757;44.024;20.456;2023-06-24T03:29:13;6.03;;;2.05;;
66169;SDS011;66757;44.024;20.456;2023-06-24T03:31:38;4.13;;;1.38;;
66169;SDS011;66757;44.024;20.456;2023-06-24T03:34:09;7.72;;;1.63;;
66169;SDS011;66757;44.024;20.456;2023-06-24T03:36:37;6.03;;;1.67;;
66169;SDS011;66757;44.024;20.456;2023-06-24T03:53:26;9.23;;;2.40;;
66169;SDS011;66757;44.024;20.456;2023-06-24T03:55:52;7.80;;;2.50;;
66169;SDS011;66757;44.024;20.456;2023-06-24T03:58:17;6.63;;;1.90;;
66169;SDS011;66757;44.024;20.456;2023-06-24T04:00:45;5.00;;;1.75;;
66169;SDS011;66757;44.024;20.456;2023-06-24T04:03:12;4.05;;;1.98;;
66169;SDS011;66757;44.024;20.456;2023-06-24T04:05:38;5.45;;;1.48;;
66169;SDS011;66757;44.024;20.456;2023-06-24T04:08:03;6.38;;;1.58;;
66169;SDS011;66757;44.024;20.456;2023-06-24T04:10:31;3.72;;;1.70;;
66169;SDS011;66757;44.024;20.456;2023-06-24T04:12:57;4.00;;;1.52;;
66169;SDS011;66757;44.024;20.456;2023-06-24T04:15:22;4.07;;;1.50;;
66169;SDS011;66757;44.024;20.456;2023-06-24T04:17:48;4.93;;;1.52;;
66169;SDS011;66757;44.024;20.456;2023-06-24T04:20:14;4.85;;;1.92;;
66169;SDS011;66757;44.024;20.456;2023-06-24T04:22:40;7.35;;;2.00;;
66169;SDS011;66757;44.024;20.456;2023-06-24T04:25:06;6.63;;;1.48;;
66169;SDS011;66757;44.024;20.456;2023-06-24T04:27:32;3.53;;;1.55;;
66169;SDS011;66757;44.024;20.456;2023-06-24T04:29:58;3.88;;;1.50;;
66169;SDS011;66757;44.024;20.456;2023-06-24T04:32:25;4.07;;;1.48;;
66169;SDS011;66757;44.024;20.456;2023-06-24T04:34:50;5.18;;;1.77;;
66169;SDS011;66757;44.024;20.456;2023-06-24T04:37:15;5.60;;;1.63;;
66169;SDS011;66757;44.024;20.456;2023-06-24T04:39:41;4.90;;;2.00;;
66169;SDS011;66757;44.024;20.456;2023-06-24T04:42:08;8.55;;;2.00;;
66169;SDS011;66757;44.024;20.456;2023-06-24T04:44:33;9.85;;;2.15;;
66169;SDS011;66757;44.024;20.456;2023-06-24T04:46:59;4.25;;;1.90;;
66169;SDS011;66757;44.024;20.456;2023-06-24T04:49:24;4.43;;;1.67;;
66169;SDS011;66757;44.024;20.456;2023-06-24T04:51:50;7.47;;;1.63;;
66169;SDS011;66757;44.024;20.456;2023-06-24T04:54:15;8.07;;;2.17;;
66169;SDS011;66757;44.024;20.456;2023-06-24T04:56:41;18.35;;;3.70;;
66169;SDS011;66757;44.024;20.456;2023-06-24T04:59:06;6.25;;;2.08;;
66169;SDS011;66757;44.024;20.456;2023-06-24T05:01:32;6.10;;;1.98;;
66169;SDS011;66757;44.024;20.456;2023-06-24T05:03:57;5.35;;;1.60;;
66169;SDS011;66757;44.024;20.456;2023-06-24T05:06:22;6.00;;;1.73;;
66169;SDS011;66757;44.024;20.456;2023-06-24T05:08:48;5.35;;;2.47;;
66169;SDS011;66757;44.024;20.456;2023-06-24T05:11:13;7.15;;;2.10;;
66169;SDS011;66757;44.024;20.456;2023-06-24T05:13:39;6.53;;;2.22;;
66169;SDS011;66757;44.024;20.456;2023-06-24T05:16:05;6.00;;;2.33;;
66169;SDS011;66757;44.024;20.456;2023-06-24T05:18:30;4.25;;;1.60;;
66169;SDS011;66757;44.024;20.456;2023-06-24T05:20:56;5.50;;;2.10;;
66169;SDS011;66757;44.024;20.456;2023-06-24T05:23:21;8.65;;;2.53;;
66169;SDS011;66757;44.024;20.456;2023-06-24T05:25:47;3.33;;;1.95;;
66169;SDS011;66757;44.024;20.456;2023-06-24T05:28:12;6.30;;;2.35;;
66169;SDS011;66757;44.024;20.456;2023-06-24T05:30:37;5.38;;;2.45;;
66169;SDS011;66757;44.024;20.456;2023-06-24T05:33:03;8.68;;;2.88;;
66169;SDS011;66757;44.024;20.456;2023-06-24T05:35:28;10.20;;;2.97;;
66169;SDS011;66757;44.024;20.456;2023-06-24T05:37:54;4.60;;;2.35;;
66169;SDS011;66757;44.024;20.456;2023-06-24T05:40:19;6.50;;;2.58;;
66169;SDS011;66757;44.024;20.456;2023-06-24T05:42:44;8.98;;;2.80;;
66169;SDS011;66757;44.024;20.456;2023-06-24T05:45:10;8.57;;;2.33;;
66169;SDS011;66757;44.024;20.456;2023-06-24T05:47:36;4.13;;;2.00;;
66169;SDS011;66757;44.024;20.456;2023-06-24T05:50:03;6.43;;;2.05;;
66169;SDS011;66757;44.024;20.456;2023-06-24T05:52:29;7.32;;;2.35;;
66169;SDS011;66757;44.024;20.456;2023-06-24T05:54:54;5.10;;;1.80;;
66169;SDS011;66757;44.024;20.456;2023-06-24T05:57:20;17.08;;;3.28;;
66169;SDS011;66757;44.024;20.456;2023-06-24T05:59:45;10.88;;;2.20;;
66169;SDS011;66757;44.024;20.456;2023-06-24T06:02:11;5.50;;;1.73;;
66169;SDS011;66757;44.024;20.456;2023-06-24T06:04:37;4.18;;;1.80;;
66169;SDS011;66757;44.024;20.456;2023-06-24T06:07:04;8.65;;;1.50;;
66169;SDS011;66757;44.024;20.456;2023-06-24T06:09:29;3.83;;;1.92;;
66169;SDS011;66757;44.024;20.456;2023-06-24T06:11:54;2.95;;;1.92;;
66169;SDS011;66757;44.024;20.456;2023-06-24T06:14:20;4.32;;;2.53;;
66169;SDS011;66757;44.024;20.456;2023-06-24T06:16:47;3.33;;;1.60;;
66169;SDS011;66757;44.024;20.456;2023-06-24T06:19:13;6.70;;;2.10;;
66169;SDS011;66757;44.024;20.456;2023-06-24T06:21:38;4.85;;;1.70;;
66169;SDS011;66757;44.024;20.456;2023-06-24T06:24:04;9.75;;;1.85;;
66169;SDS011;66757;44.024;20.456;2023-06-24T06:26:30;5.38;;;2.15;;
66169;SDS011;66757;44.024;20.456;2023-06-24T06:28:55;4.20;;;2.25;;
66169;SDS011;66757;44.024;20.456;2023-06-24T06:31:21;5.60;;;2.28;;
66169;SDS011;66757;44.024;20.456;2023-06-24T06:33:47;3.53;;;2.10;;
66169;SDS011;66757;44.024;20.456;2023-06-24T06:36:13;6.25;;;2.33;;
66169;SDS011;66757;44.024;20.456;2023-06-24T06:38:40;4.00;;;2.47;;
66169;SDS011;66757;44.024;20.456;2023-06-24T06:41:05;7.82;;;3.95;;
66169;SDS011;66757;44.024;20.456;2023-06-24T06:43:33;7.03;;;4.22;;
66169;SDS011;66757;44.024;20.456;2023-06-24T06:45:59;9.35;;;5.00;;
66169;SDS011;66757;44.024;20.456;2023-06-24T06:48:24;7.35;;;4.95;;
66169;SDS011;66757;44.024;20.456;2023-06-24T06:50:50;13.77;;;7.50;;
66169;SDS011;66757;44.024;20.456;2023-06-24T06:53:17;12.23;;;8.13;;
66169;SDS011;66757;44.024;20.456;2023-06-24T06:55:42;11.48;;;7.93;;
66169;SDS011;66757;44.024;20.456;2023-06-24T06:58:08;12.32;;;8.40;;
66169;SDS011;66757;44.024;20.456;2023-06-24T07:00:33;19.70;;;9.45;;
66169;SDS011;66757;44.024;20.456;2023-06-24T07:02:59;13.23;;;9.32;;
66169;SDS011;66757;44.024;20.456;2023-06-24T07:05:24;12.13;;;9.43;;
66169;SDS011;66757;44.024;20.456;2023-06-24T07:07:50;13.23;;;10.38;;
66169;SDS011;66757;44.024;20.456;2023-06-24T07:10:15;11.55;;;10.32;;
66169;SDS011;66757;44.024;20.456;2023-06-24T07:12:42;13.80;;;11.68;;
66169;SDS011;66757;44.024;20.456;2023-06-24T07:15:08;12.18;;;10.98;;
66169;SDS011;66757;44.024;20.456;2023-06-24T07:17:35;18.67;;;15.23;;
66169;SDS011;66757;44.024;20.456;2023-06-24T07:20:00;16.17;;;14.52;;
66169;SDS011;66757;44.024;20.456;2023-06-24T07:22:25;16.13;;;14.18;;
66169;SDS011;66757;44.024;20.456;2023-06-24T07:24:51;16.85;;;14.27;;
66169;SDS011;66757;44.024;20.456;2023-06-24T07:27:16;19.75;;;13.95;;
66169;SDS011;66757;44.024;20.456;2023-06-24T07:29:42;14.40;;;12.82;;
66169;SDS011;66757;44.024;20.456;2023-06-24T07:32:07;18.20;;;14.73;;
66169;SDS011;66757;44.024;20.456;2023-06-24T07:34:33;17.23;;;15.63;;
66169;SDS011;66757;44.024;20.456;2023-06-24T07:36:59;18.00;;;16.13;;
66169;SDS011;66757;44.024;20.456;2023-06-24T07:39:25;18.98;;;14.73;;
66169;SDS011;66757;44.024;20.456;2023-06-24T07:41:51;17.45;;;14.15;;
66169;SDS011;66757;44.024;20.456;2023-06-24T07:44:16;17.73;;;14.88;;
66169;SDS011;66757;44.024;20.456;2023-06-24T07:46:43;17.65;;;15.05;;
66169;SDS011;66757;44.024;20.456;2023-06-24T07:49:08;15.70;;;13.57;;
66169;SDS011;66757;44.024;20.456;2023-06-24T07:51:34;13.70;;;12.27;;
66169;SDS011;66757;44.024;20.456;2023-06-24T07:54:00;19.17;;;13.07;;
66169;SDS011;66757;44.024;20.456;2023-06-24T07:56:25;15.90;;;14.30;;
66169;SDS011;66757;44.024;20.456;2023-06-24T07:58:51;17.85;;;16.15;;
66169;SDS011;66757;44.024;20.456;2023-06-24T08:01:16;18.15;;;16.30;;
66169;SDS011;66757;44.024;20.456;2023-06-24T08:03:42;19.58;;;16.45;;
66169;SDS011;66757;44.024;20.456;2023-06-24T08:06:07;18.70;;;16.70;;
66169;SDS011;66757;44.024;20.456;2023-06-24T08:08:32;18.98;;;17.08;;
66169;SDS011;66757;44.024;20.456;2023-06-24T08:10:58;22.08;;;18.42;;
66169;SDS011;66757;44.024;20.456;2023-06-24T08:13:23;20.38;;;18.17;;
66169;SDS011;66757;44.024;20.456;2023-06-24T08:15:49;20.60;;;18.08;;
66169;SDS011;66757;44.024;20.456;2023-06-24T08:18:14;21.75;;;19.48;;
66169;SDS011;66757;44.024;20.456;2023-06-24T08:20:40;22.30;;;18.20;;
66169;SDS011;66757;44.024;20.456;2023-06-24T08:23:05;21.02;;;18.92;;
66169;SDS011;66757;44.024;20.456;2023-06-24T08:25:30;22.70;;;19.63;;
66169;SDS011;66757;44.024;20.456;2023-06-24T08:27:56;25.90;;;20.73;;
66169;SDS011;66757;44.024;20.456;2023-06-24T08:30:21;22.70;;;20.30;;
66169;SDS011;66757;44.024;20.456;2023-06-24T08:32:47;21.35;;;19.15;;
66169;SDS011;66757;44.024;20.456;2023-06-24T08:35:12;20.77;;;18.63;;
66169;SDS011;66757;44.024;20.456;2023-06-24T08:37:38;22.15;;;19.75;;
66169;SDS011;66757;44.024;20.456;2023-06-24T08:40:04;22.58;;;19.20;;
66169;SDS011;66757;44.024;20.456;2023-06-24T08:42:31;26.02;;;20.67;;
66169;SDS011;66757;44.024;20.456;2023-06-24T08:44:56;23.88;;;20.77;;
66169;SDS011;66757;44.024;20.456;2023-06-24T08:47:23;23.58;;;21.25;;
66169;SDS011;66757;44.024;20.456;2023-06-24T08:49:52;24.40;;;20.90;;
66169;SDS011;66757;44.024;20.456;2023-06-24T08:52:21;23.27;;;20.98;;
66169;SDS011;66757;44.024;20.456;2023-06-24T08:54:51;24.38;;;21.75;;
66169;SDS011;66757;44.024;20.456;2023-06-24T08:57:20;25.90;;;20.75;;
66169;SDS011;66757;44.024;20.456;2023-06-24T08:59:46;23.70;;;20.10;;
66169;SDS011;66757;44.024;20.456;2023-06-24T09:02:11;22.95;;;20.38;;
66169;SDS011;66757;44.024;20.456;2023-06-24T09:04:38;20.48;;;18.48;;
66169;SDS011;66757;44.024;20.456;2023-06-24T09:07:04;22.98;;;20.58;;
66169;SDS011;66757;44.024;20.456;2023-06-24T09:09:30;21.88;;;19.40;;
66169;SDS011;66757;44.024;20.456;2023-06-24T09:11:56;21.65;;;19.45;;
66169;SDS011;66757;44.024;20.456;2023-06-24T09:14:23;26.15;;;19.67;;
66169;SDS011;66757;44.024;20.456;2023-06-24T09:16:56;22.15;;;19.95;;
66169;SDS011;66757;44.024;20.456;2023-06-24T09:19:24;25.77;;;21.40;;
66169;SDS011;66757;44.024;20.456;2023-06-24T09:21:54;26.52;;;22.10;;
66169;SDS011;66757;44.024;20.456;2023-06-24T09:24:20;25.23;;;22.52;;
66169;SDS011;66757;44.024;20.456;2023-06-24T09:26:46;27.23;;;22.75;;
66169;SDS011;66757;44.024;20.456;2023-06-24T09:29:14;32.13;;;27.52;;
66169;SDS011;66757;44.024;20.456;2023-06-24T09:31:49;37.28;;;33.25;;
66169;SDS011;66757;44.024;20.456;2023-06-24T09:34:18;37.00;;;32.42;;
66169;SDS011;66757;44.024;20.456;2023-06-24T09:36:45;37.78;;;30.35;;
66169;SDS011;66757;44.024;20.456;2023-06-24T09:39:15;34.35;;;30.63;;
66169;SDS011;66757;44.024;20.456;2023-06-24T09:41:41;34.38;;;29.60;;
66169;SDS011;66757;44.024;20.456;2023-06-24T09:44:08;35.58;;;28.30;;
66169;SDS011;66757;44.024;20.456;2023-06-24T09:46:37;32.28;;;28.13;;
66169;SDS011;66757;44.024;20.456;2023-06-24T09:49:04;28.92;;;25.98;;
66169;SDS011;66757;44.024;20.456;2023-06-24T09:51:31;28.90;;;25.90;;
66169;SDS011;66757;44.024;20.456;2023-06-24T09:54:00;28.08;;;25.13;;
66169;SDS011;66757;44.024;20.456;2023-06-24T09:56:26;31.63;;;28.55;;
66169;SDS011;66757;44.024;20.456;2023-06-24T09:58:52;31.88;;;28.73;;
66169;SDS011;66757;44.024;20.456;2023-06-24T10:01:18;33.28;;;28.90;;
66169;SDS011;66757;44.024;20.456;2023-06-24T10:03:43;33.67;;;27.27;;
66169;SDS011;66757;44.024;20.456;2023-06-24T10:06:09;29.15;;;26.20;;
66169;SDS011;66757;44.024;20.456;2023-06-24T10:08:35;31.70;;;27.13;;
66169;SDS011;66757;44.024;20.456;2023-06-24T10:11:00;28.70;;;25.77;;
66169;SDS011;66757;44.024;20.456;2023-06-24T10:13:27;27.80;;;24.90;;
66169;SDS011;66757;44.024;20.456;2023-06-24T10:15:53;29.75;;;26.38;;
66169;SDS011;66757;44.024;20.456;2023-06-24T10:18:33;29.38;;;26.45;;
66169;SDS011;66757;44.024;20.456;2023-06-24T10:21:03;28.33;;;24.60;;
66169;SDS011;66757;44.024;20.456;2023-06-24T10:23:30;27.30;;;24.45;;
66169;SDS011;66757;44.024;20.456;2023-06-24T10:25:56;26.17;;;23.50;;
66169;SDS011;66757;44.024;20.456;2023-06-24T10:28:22;25.70;;;22.98;;
66169;SDS011;66757;44.024;20.456;2023-06-24T10:30:54;26.73;;;23.90;;
66169;SDS011;66757;44.024;20.456;2023-06-24T10:33:20;25.23;;;22.55;;
66169;SDS011;66757;44.024;20.456;2023-06-24T10:35:46;25.25;;;22.55;;
66169;SDS011;66757;44.024;20.456;2023-06-24T10:38:11;24.35;;;21.83;;
66169;SDS011;66757;44.024;20.456;2023-06-24T10:43:22;23.73;;;21.25;;
66169;SDS011;66757;44.024;20.456;2023-06-24T10:45:49;24.27;;;21.73;;
66169;SDS011;66757;44.024;20.456;2023-06-24T10:48:16;24.75;;;22.15;;
66169;SDS011;66757;44.024;20.456;2023-06-24T10:50:44;25.02;;;22.42;;
66169;SDS011;66757;44.024;20.456;2023-06-24T10:53:10;24.02;;;21.50;;
66169;SDS011;66757;44.024;20.456;2023-06-24T10:55:37;24.80;;;22.15;;
